Time;durP1;ratioP1;P1;durP2;ratioP2;P2;SDS_P1;SDS_P2;PMS_P1;PMS_P2;Temp;Humidity;BMP_temperature;BMP_pressure;BME280_temperature;BME280_humidity;BME280_pressure;Samples;Min_cycle;Max_cycle;Signal;HPM_P1;HPM_P2
2023/02/16 00:01:18;;;;;;;49.00;24.27;;;;;;;2.06;100.00;101820.66;7392061;19;20383;-62
2023/02/16 00:03:53;;;;;;;51.33;24.17;;;;;;;2.06;100.00;101820.66;7385778;19;20450;-63
2023/02/16 00:06:23;;;;;;;52.80;24.57;;;;;;;2.06;100.00;101820.66;7391658;19;20407;-61
2023/02/16 00:08:54;;;;;;;54.80;24.43;;;;;;;2.02;100.00;101820.38;7387999;19;20443;-62
2023/02/16 00:14:11;;;;;;;53.73;25.07;;;;;;;2.11;100.00;101819.44;7388524;19;20466;-62
2023/02/16 00:16:41;;;;;;;50.97;24.00;;;;;;;2.12;100.00;101822.16;7389002;19;20403;-62
2023/02/16 00:19:25;;;;;;;50.40;23.70;;;;;;;2.09;100.00;101823.47;7390659;19;20415;-63
2023/02/16 00:21:56;;;;;;;58.93;25.40;;;;;;;2.10;100.00;101817.66;7389252;19;20542;-64
2023/02/16 00:24:27;;;;;;;58.50;24.27;;;;;;;2.11;100.00;101819.44;7390495;19;20446;-63
2023/02/16 00:26:57;;;;;;;50.60;23.63;;;;;;;2.08;100.00;101816.59;7387908;19;20420;-64
2023/02/16 00:29:29;;;;;;;54.90;26.00;;;;;;;2.12;100.00;101811.06;7394044;19;20784;-62
2023/02/16 00:32:00;;;;;;;58.20;23.33;;;;;;;2.15;100.00;101807.13;7395519;19;20399;-64
2023/02/16 00:34:35;;;;;;;55.77;25.97;;;;;;;2.13;100.00;101817.94;7396453;19;20423;-63
2023/02/16 00:37:06;;;;;;;66.63;27.10;;;;;;;2.16;100.00;101808.06;7395817;19;20390;-62
2023/02/16 00:39:36;;;;;;;62.23;26.90;;;;;;;2.15;100.00;101824.97;7398287;19;20407;-63
2023/02/16 00:42:07;;;;;;;56.83;24.20;;;;;;;2.20;100.00;101815.19;7394966;19;20410;-63
2023/02/16 00:44:38;;;;;;;61.27;26.23;;;;;;;2.18;100.00;101816.72;7395193;19;20431;-62
2023/02/16 00:47:18;;;;;;;55.13;27.00;;;;;;;2.19;100.00;101823.59;7393699;19;20419;-63
2023/02/16 00:49:52;;;;;;;53.03;25.80;;;;;;;2.19;100.00;101822.72;7397722;19;20495;-62
2023/02/16 00:52:33;;;;;;;55.97;27.10;;;;;;;2.20;100.00;101820.28;7394803;19;20979;-61
2023/02/16 00:55:04;;;;;;;59.33;26.57;;;;;;;2.20;100.00;101820.28;7398270;19;20760;-64
2023/02/16 00:57:36;;;;;;;54.77;26.10;;;;;;;2.21;100.00;101817.00;7394249;19;20450;-62
2023/02/16 01:00:09;;;;;;;56.77;27.33;;;;;;;2.22;100.00;101815.34;7397869;19;20947;-62
2023/02/16 01:02:38;;;;;;;61.90;28.47;;;;;;;2.21;100.00;101814.44;7393004;19;20482;-64
2023/02/16 01:05:10;;;;;;;60.60;26.70;;;;;;;2.22;100.00;101810.25;7397821;19;21059;-63
2023/02/16 01:13:04;;;;;;;57.50;26.83;;;;;;;2.28;100.00;101806.63;7392002;19;20471;-63
2023/02/16 01:15:34;;;;;;;59.23;26.87;;;;;;;2.31;100.00;101802.56;7397105;19;20396;-62
2023/02/16 01:18:03;;;;;;;59.13;28.20;;;;;;;2.34;100.00;101813.03;7393843;19;21125;-63
2023/02/16 01:20:36;;;;;;;57.03;28.00;;;;;;;2.31;100.00;101803.47;7396301;19;20413;-63
2023/02/16 01:23:06;;;;;;;60.67;29.27;;;;;;;2.37;100.00;101808.22;7393095;19;20431;-63
2023/02/16 01:25:35;;;;;;;69.97;30.07;;;;;;;2.35;100.00;101804.66;7396632;19;20403;-61
2023/02/16 01:28:05;;;;;;;60.60;26.63;;;;;;;2.38;100.00;101789.63;7392990;19;20453;-63
2023/02/16 01:30:35;;;;;;;61.03;28.23;;;;;;;2.40;100.00;101796.66;7395452;19;20399;-62
2023/02/16 01:33:04;;;;;;;57.53;26.60;;;;;;;2.37;100.00;101803.13;7392133;19;20434;-60
2023/02/16 01:35:36;;;;;;;62.00;28.47;;;;;;;2.38;100.00;101790.53;7396260;19;20426;-63
2023/02/16 01:38:06;;;;;;;65.50;27.37;;;;;;;2.40;100.00;101790.66;7393364;19;20441;-62
2023/02/16 01:40:40;;;;;;;66.60;29.77;;;;;;;2.37;100.00;101792.94;7393612;19;20416;-63
2023/02/16 01:43:19;;;;;;;61.63;28.97;;;;;;;2.34;100.00;101798.66;7392131;19;20561;-63
2023/02/16 01:45:51;;;;;;;64.93;26.93;;;;;;;2.36;100.00;101802.22;7396373;19;20395;-61
2023/02/16 01:48:23;;;;;;;65.73;27.57;;;;;;;2.39;100.00;101811.81;7392951;19;20437;-62
2023/02/16 01:51:03;;;;;;;64.73;27.20;;;;;;;2.39;100.00;101816.91;7395603;19;20397;-63
2023/02/16 01:53:35;;;;;;;54.80;26.10;;;;;;;2.43;100.00;101811.34;7391717;19;20426;-64
2023/02/16 01:56:07;;;;;;;57.50;27.53;;;;;;;2.44;100.00;101805.47;7395977;19;20395;-63
2023/02/16 01:58:41;;;;;;;69.00;28.53;;;;;;;2.41;100.00;101805.22;7391900;19;20445;-65
2023/02/16 02:01:38;;;;;;;63.23;27.43;;;;;;;2.42;100.00;101814.66;7395495;19;20620;-64
2023/02/16 02:07:06;;;;;;;63.93;27.30;;;;;;;2.49;100.00;101811.91;7392758;19;20423;-65
2023/02/16 02:09:40;;;;;;;70.63;28.67;;;;;;;2.47;100.00;101804.88;7394141;19;20402;-65
2023/02/16 02:12:17;;;;;;;67.40;29.50;;;;;;;2.48;100.00;101811.75;7392205;19;20455;-65
2023/02/16 02:14:48;;;;;;;67.97;28.27;;;;;;;2.56;100.00;101811.69;7393986;19;20415;-64
2023/02/16 02:17:20;;;;;;;60.57;28.40;;;;;;;2.59;100.00;101810.19;7391899;19;20435;-64
2023/02/16 02:20:14;;;;;;;66.17;28.30;;;;;;;2.60;100.00;101812.88;7392026;19;20399;-64
2023/02/16 02:26:28;;;;;;;69.10;29.37;;;;;;;2.63;100.00;101817.34;7394316;19;20395;-64
2023/02/16 02:29:12;;;;;;;71.23;30.00;;;;;;;2.65;100.00;101815.84;7390595;19;20482;-64
2023/02/16 02:31:50;;;;;;;63.87;29.47;;;;;;;2.62;100.00;101823.22;7392560;19;20404;-64
2023/02/16 02:34:26;;;;;;;55.07;25.63;;;;;;;2.65;100.00;101823.47;7393524;19;20466;-62
2023/02/16 02:37:05;;;;;;;74.40;29.17;;;;;;;2.62;100.00;101825.75;7392400;19;20411;-64
2023/02/16 02:39:40;;;;;;;63.63;27.67;;;;;;;2.66;100.00;101825.28;7394087;19;20407;-62
2023/02/16 02:42:13;;;;;;;64.23;26.70;;;;;;;2.66;100.00;101822.75;7390740;19;20467;-62
2023/02/16 02:44:49;;;;;;;66.90;27.37;;;;;;;2.62;100.00;101819.00;7393038;19;20439;-64
2023/02/16 02:47:19;;;;;;;70.03;30.23;;;;;;;2.65;100.00;101826.03;7389411;19;20413;-64
2023/02/16 02:49:52;;;;;;;67.77;28.63;;;;;;;2.67;100.00;101822.84;7394354;19;20395;-62
2023/02/16 02:52:22;;;;;;;63.60;28.97;;;;;;;2.72;100.00;101825.81;7389914;19;20411;-65
2023/02/16 03:03:11;;;;;;;66.07;27.77;;;;;;;2.67;100.00;101821.97;7386453;19;20451;-63
2023/02/16 03:05:46;;;;;;;63.27;29.30;;;;;;;2.62;100.00;101816.44;7394266;19;20422;-68
2023/02/16 03:08:17;;;;;;;65.63;29.30;;;;;;;2.64;100.00;101814.03;7388985;19;20418;-64
2023/02/16 03:13:36;;;;;;;64.07;25.90;;;;;;;2.65;100.00;101820.94;7386460;19;20453;-65
2023/02/16 03:16:11;;;;;;;68.90;29.20;;;;;;;2.68;100.00;101822.09;7391411;19;20402;-62
2023/02/16 03:29:39;;;;;;;75.70;31.97;;;;;;;2.64;100.00;101824.25;7391067;19;20390;-64
2023/02/16 03:32:11;;;;;;;66.07;29.30;;;;;;;2.65;100.00;101824.38;7386234;19;20743;-65
2023/02/16 03:34:40;;;;;;;68.93;26.00;;;;;;;2.67;100.00;101829.63;7389138;19;20439;-64
2023/02/16 03:37:10;;;;;;;73.03;30.63;;;;;;;2.64;100.00;101825.16;7386979;19;20403;-64
2023/02/16 03:42:22;;;;;;;72.07;30.50;;;;;;;2.65;100.00;101815.84;7386696;19;20782;-66
2023/02/16 03:44:52;;;;;;;63.87;29.67;;;;;;;2.66;100.00;101815.09;7391567;19;20420;-64
2023/02/16 03:47:24;;;;;;;70.50;29.70;;;;;;;2.61;100.00;101808.69;7386192;19;20423;-64
2023/02/16 03:49:53;;;;;;;63.80;27.70;;;;;;;2.62;100.00;101811.34;7391856;19;20406;-64
2023/02/16 03:52:23;;;;;;;63.60;30.30;;;;;;;2.60;100.00;101817.09;7386455;19;20422;-64
2023/02/16 03:54:52;;;;;;;68.10;30.80;;;;;;;2.55;100.00;101807.38;7389988;19;20432;-64
2023/02/16 03:57:21;;;;;;;69.40;29.70;;;;;;;2.54;100.00;101803.03;7385006;19;20418;-65
2023/02/16 03:59:51;;;;;;;65.50;30.50;;;;;;;2.52;100.00;101801.97;7390827;19;20935;-64
2023/02/16 04:02:24;;;;;;;69.30;29.63;;;;;;;2.56;100.00;101796.41;7379986;19;20437;-65
2023/02/16 04:04:53;;;;;;;68.07;28.73;;;;;;;2.50;100.00;101795.84;7395027;19;20475;-61
2023/02/16 04:07:23;;;;;;;64.00;29.83;;;;;;;2.50;100.00;101792.41;7391151;19;20450;-64
2023/02/16 04:09:52;;;;;;;63.30;30.40;;;;;;;2.45;100.00;101780.91;7397178;19;20424;-64
2023/02/16 04:15:04;;;;;;;73.00;32.07;;;;;;;2.43;100.00;101793.50;7397890;19;21253;-64
2023/02/16 04:17:36;;;;;;;76.80;31.40;;;;;;;2.43;100.00;101793.50;7394870;19;20418;-62
2023/02/16 04:20:06;;;;;;;72.90;29.57;;;;;;;2.44;100.00;101787.66;7399162;19;20392;-63
2023/02/16 04:22:36;;;;;;;69.70;31.53;;;;;;;2.39;100.00;101796.53;7394421;19;20409;-64
2023/02/16 04:25:05;;;;;;;61.73;30.77;;;;;;;2.37;100.00;101785.31;7399036;19;20399;-64
2023/02/16 04:27:35;;;;;;;69.97;31.57;;;;;;;2.31;100.00;101790.75;7394469;19;20407;-62
2023/02/16 04:30:06;;;;;;;66.40;30.30;;;;;;;2.34;100.00;101795.19;7397877;19;20773;-64
2023/02/16 04:32:38;;;;;;;67.10;29.40;;;;;;;2.30;100.00;101786.38;7391885;19;20506;-64
2023/02/16 04:35:08;;;;;;;70.40;29.07;;;;;;;2.28;100.00;101781.16;7396711;19;20407;-62
2023/02/16 04:37:38;;;;;;;64.03;29.43;;;;;;;2.28;100.00;101777.72;7393944;19;20426;-64
2023/02/16 04:40:12;;;;;;;69.93;31.33;;;;;;;2.23;100.00;101769.66;7397647;19;20396;-64
2023/02/16 04:42:42;;;;;;;60.67;28.60;;;;;;;2.24;100.00;101776.53;7393877;19;20975;-62
2023/02/16 04:45:12;;;;;;;68.87;30.00;;;;;;;2.23;100.00;101777.28;7398245;19;20404;-65
2023/02/16 04:47:44;;;;;;;70.83;30.67;;;;;;;2.21;100.00;101770.28;7394315;19;20419;-65
2023/02/16 04:50:14;;;;;;;72.77;29.10;;;;;;;2.15;100.00;101766.41;7397483;19;20972;-61
2023/02/16 04:52:43;;;;;;;62.30;28.50;;;;;;;2.19;100.00;101761.59;7393882;19;20784;-64
2023/02/16 04:55:13;;;;;;;72.50;28.97;;;;;;;2.15;100.00;101765.50;7397208;19;20419;-66
2023/02/16 04:57:42;;;;;;;64.83;29.40;;;;;;;2.15;100.00;101768.03;7393914;19;20423;-62
2023/02/16 05:00:14;;;;;;;66.63;28.10;;;;;;;2.18;100.00;101765.78;7396939;19;20415;-62
2023/02/16 05:02:46;;;;;;;65.10;29.43;;;;;;;2.17;100.00;101758.91;7387295;19;20778;-63
2023/02/16 05:05:16;;;;;;;68.53;31.43;;;;;;;2.18;100.00;101755.59;7397191;19;20412;-62
2023/02/16 05:07:45;;;;;;;71.20;31.97;;;;;;;2.12;100.00;101760.13;7393136;19;20959;-63
2023/02/16 05:10:14;;;;;;;65.50;28.70;;;;;;;2.13;100.00;101762.81;7397300;19;20392;-62
2023/02/16 05:15:26;;;;;;;62.93;29.00;;;;;;;2.11;100.00;101753.25;7394481;19;20422;-63
2023/02/16 05:17:58;;;;;;;64.90;29.77;;;;;;;2.11;100.00;101751.59;7393693;19;20442;-65
2023/02/16 05:21:28;;;;;;;61.30;25.83;;;;;;;2.12;100.00;101747.41;7396655;19;20942;-62
2023/02/16 05:23:18;;;;;;;76.00;28.10;;;;;;;2.13;100.00;101757.72;7391588;19;20440;-64
2023/02/16 05:25:48;;;;;;;66.20;31.67;;;;;;;2.17;100.00;101753.81;7398557;19;20403;-63
2023/02/16 05:28:17;;;;;;;67.27;30.10;;;;;;;2.17;100.00;101764.00;7392972;19;21109;-64
2023/02/16 05:30:46;;;;;;;66.60;28.70;;;;;;;2.15;100.00;101763.84;7397113;19;20404;-64
2023/02/16 05:33:19;;;;;;;73.43;30.37;;;;;;;2.13;100.00;101767.91;7390906;19;20464;-64
2023/02/16 05:35:48;;;;;;;64.77;28.87;;;;;;;2.18;100.00;101763.25;7395287;19;20386;-64
2023/02/16 05:38:18;;;;;;;64.23;29.47;;;;;;;2.19;100.00;101757.38;7391386;19;20428;-64
2023/02/16 05:40:47;;;;;;;62.67;29.07;;;;;;;2.17;100.00;101764.00;7397382;19;20410;-65
2023/02/16 05:43:17;;;;;;;61.70;24.57;;;;;;;2.22;100.00;101762.78;7390704;19;20479;-63
2023/02/16 05:45:47;;;;;;;60.27;25.60;;;;;;;2.23;100.00;101764.56;7396909;19;20448;-65
2023/02/16 05:48:19;;;;;;;70.93;28.27;;;;;;;2.19;100.00;101775.22;7390084;19;20451;-62
2023/02/16 05:50:49;;;;;;;61.57;27.93;;;;;;;2.19;100.00;101772.66;7396183;19;20403;-62
2023/02/16 05:53:18;;;;;;;62.63;28.37;;;;;;;2.24;100.00;101755.25;7390440;19;20825;-62
2023/02/16 05:55:48;;;;;;;72.13;32.17;;;;;;;2.20;100.00;101759.16;7396091;19;20427;-61
2023/02/16 05:58:17;;;;;;;66.80;29.60;;;;;;;2.23;100.00;101754.38;7390298;19;20443;-64
2023/02/16 06:00:47;;;;;;;60.60;27.63;;;;;;;2.21;100.00;101755.88;7395889;19;20395;-64
2023/02/16 06:03:19;;;;;;;67.13;28.90;;;;;;;2.20;100.00;101748.09;7388127;19;20447;-63
2023/02/16 06:05:48;;;;;;;62.60;27.33;;;;;;;2.19;100.00;101751.41;7396754;19;20769;-64
2023/02/16 06:08:18;;;;;;;61.00;28.67;;;;;;;2.23;100.00;101756.00;7390776;19;20438;-64
2023/02/16 06:10:47;;;;;;;64.53;27.87;;;;;;;2.24;100.00;101755.25;7396342;19;20419;-63
2023/02/16 06:13:17;;;;;;;62.90;28.57;;;;;;;2.22;100.00;101755.13;7389573;19;20430;-64
2023/02/16 06:15:46;;;;;;;59.10;27.47;;;;;;;2.25;100.00;101762.16;7395540;19;20431;-62
2023/02/16 06:18:18;;;;;;;67.60;26.70;;;;;;;2.28;100.00;101750.59;7388339;19;20430;-63
2023/02/16 06:20:48;;;;;;;68.73;28.93;;;;;;;2.27;100.00;101753.00;7395850;19;20403;-62
2023/02/16 06:23:18;;;;;;;69.37;29.77;;;;;;;2.32;100.00;101755.97;7389350;19;20433;-64
2023/02/16 06:25:50;;;;;;;61.53;28.77;;;;;;;2.28;100.00;101760.78;7395653;19;20938;-63
2023/02/16 06:28:20;;;;;;;61.83;27.57;;;;;;;2.35;100.00;101761.34;7390004;19;20786;-64
2023/02/16 06:30:49;;;;;;;62.70;28.97;;;;;;;2.34;100.00;101757.00;7395298;19;20934;-64
2023/02/16 06:33:21;;;;;;;68.10;29.30;;;;;;;2.33;100.00;101761.22;7388008;19;21007;-63
2023/02/16 06:35:52;;;;;;;64.73;29.23;;;;;;;2.32;100.00;101768.69;7395563;19;20463;-63
2023/02/16 06:38:22;;;;;;;70.33;27.63;;;;;;;2.34;100.00;101772.28;7389529;19;20963;-64
2023/02/16 06:40:53;;;;;;;58.67;28.50;;;;;;;2.33;100.00;101773.03;7394960;19;20443;-62
2023/02/16 06:43:22;;;;;;;62.87;27.03;;;;;;;2.35;100.00;101774.97;7388813;19;20524;-61
2023/02/16 06:45:52;;;;;;;68.33;28.50;;;;;;;2.42;100.00;101772.22;7395694;19;20404;-63
2023/02/16 06:48:24;;;;;;;60.93;28.37;;;;;;;2.36;100.00;101771.66;7390043;19;20438;-64
2023/02/16 06:50:53;;;;;;;57.90;26.27;;;;;;;2.33;100.00;101760.28;7393807;19;20420;-64
2023/02/16 06:53:24;;;;;;;62.50;29.97;;;;;;;2.32;100.00;101759.41;7389020;19;20451;-63
2023/02/16 06:55:53;;;;;;;67.53;29.70;;;;;;;2.36;100.00;101758.03;7394460;19;20443;-64
2023/02/16 06:58:23;;;;;;;70.27;30.03;;;;;;;2.33;100.00;101757.75;7389046;19;20464;-62
2023/02/16 07:00:52;;;;;;;63.00;27.37;;;;;;;2.37;100.00;101752.19;7394056;19;20395;-64
2023/02/16 07:03:24;;;;;;;66.30;29.63;;;;;;;2.37;100.00;101744.53;7379450;19;20438;-64
2023/02/16 07:05:54;;;;;;;61.73;27.63;;;;;;;2.37;100.00;101753.06;7394854;19;20521;-61
2023/02/16 07:08:23;;;;;;;66.93;28.87;;;;;;;2.41;100.00;101755.16;7388148;19;20431;-62
2023/02/16 07:10:55;;;;;;;64.00;27.30;;;;;;;2.42;100.00;101749.28;7394124;19;20435;-63
2023/02/16 07:13:24;;;;;;;70.73;30.97;;;;;;;2.50;100.00;101742.34;7387831;19;20517;-64
2023/02/16 07:15:54;;;;;;;69.90;30.27;;;;;;;2.51;100.00;101746.69;7394342;19;20396;-64
2023/02/16 07:18:26;;;;;;;66.27;29.10;;;;;;;2.55;100.00;101748.75;7388619;19;20909;-63
2023/02/16 07:20:55;;;;;;;61.80;29.77;;;;;;;2.57;100.00;101746.34;7393745;19;20916;-62
2023/02/16 07:23:25;;;;;;;75.77;30.10;;;;;;;2.60;100.00;101761.91;7385911;19;20431;-62
2023/02/16 07:25:55;;;;;;;59.13;26.93;;;;;;;2.59;100.00;101761.75;7395015;19;20430;-62
2023/02/16 07:28:24;;;;;;;69.80;29.57;;;;;;;2.61;100.00;101765.38;7388421;19;20402;-66
2023/02/16 07:30:53;;;;;;;61.80;29.60;;;;;;;2.67;100.00;101773.56;7393480;19;20399;-62
2023/02/16 07:33:26;;;;;;;64.70;28.83;;;;;;;2.62;100.00;101775.66;7383435;19;20440;-64
2023/02/16 07:35:55;;;;;;;72.20;31.00;;;;;;;2.65;100.00;101773.41;7393774;19;20425;-64
2023/02/16 07:38:24;;;;;;;67.63;30.53;;;;;;;2.72;100.00;101777.41;7388634;19;20446;-65
2023/02/16 07:40:56;;;;;;;84.20;30.17;;;;;;;2.74;100.00;101770.81;7401185;19;20402;-62
2023/02/16 07:43:26;;;;;;;69.23;32.30;;;;;;;2.83;100.00;101761.41;7395125;19;20455;-65
2023/02/16 07:45:56;;;;;;;70.40;32.53;;;;;;;2.87;100.00;101751.50;7401788;19;20391;-64
2023/02/16 07:48:28;;;;;;;71.47;28.00;;;;;;;2.91;100.00;101761.19;7395150;19;20422;-64
2023/02/16 07:50:58;;;;;;;64.57;29.50;;;;;;;3.02;100.00;101757.94;7399694;19;20751;-64
2023/02/16 07:53:27;;;;;;;77.83;31.93;;;;;;;3.05;100.00;101763.34;7392978;19;20482;-65
2023/02/16 07:55:57;;;;;;;61.73;31.33;;;;;;;3.07;100.00;101771.09;7399862;19;20400;-62
2023/02/16 07:58:29;;;;;;;70.80;27.10;;;;;;;3.07;100.00;101782.22;7396373;19;20439;-63
2023/02/16 08:01:07;;;;;;;77.47;29.53;;;;;;;3.10;100.00;101776.50;7399985;19;20415;-65
2023/02/16 08:03:39;;;;;;;68.57;29.20;;;;;;;3.15;100.00;101792.19;7391683;19;20995;-64
2023/02/16 08:06:09;;;;;;;65.33;29.50;;;;;;;3.21;100.00;101790.19;7396895;19;20427;-60
2023/02/16 08:08:39;;;;;;;68.97;29.80;;;;;;;3.23;100.00;101789.56;7391264;19;20454;-64
2023/02/16 08:11:12;;;;;;;65.90;31.30;;;;;;;3.30;100.00;101791.00;7398529;19;20400;-63
2023/02/16 08:13:42;;;;;;;65.70;30.20;;;;;;;3.37;100.00;101787.31;7392126;19;20462;-58
2023/02/16 08:16:13;;;;;;;67.43;30.80;;;;;;;3.41;100.00;101789.38;7398800;19;20412;-64
2023/02/16 08:18:45;;;;;;;56.37;25.27;;;;;;;3.48;100.00;101783.16;7393974;19;20425;-64
2023/02/16 08:21:16;;;;;;;66.17;30.00;;;;;;;3.53;100.00;101784.44;7399336;19;20423;-60
2023/02/16 08:23:47;;;;;;;94.70;38.17;;;;;;;3.59;100.00;101784.97;7393705;19;20461;-64
2023/02/16 08:26:18;;;;;;;68.23;30.33;;;;;;;3.66;100.00;101786.41;7398891;19;20827;-65
2023/02/16 08:28:49;;;;;;;63.70;24.17;;;;;;;3.70;100.00;101785.03;7394218;19;20454;-64
2023/02/16 08:31:21;;;;;;;74.30;32.17;;;;;;;3.78;100.00;101797.69;7399494;19;20419;-65
2023/02/16 08:33:54;;;;;;;75.17;30.30;;;;;;;3.77;100.00;101802.66;7392618;19;21985;-64
2023/02/16 08:36:25;;;;;;;73.90;30.17;;;;;;;3.84;100.00;101801.53;7397762;19;20412;-62
2023/02/16 08:38:55;;;;;;;56.43;29.57;;;;;;;3.87;100.00;101802.69;7393595;19;21038;-65
2023/02/16 08:41:26;;;;;;;66.80;31.73;;;;;;;3.95;100.00;101794.78;7398463;19;20431;-62
2023/02/16 08:43:57;;;;;;;66.27;31.70;;;;;;;4.06;100.00;101796.59;7391726;19;20467;-62
2023/02/16 08:46:27;;;;;;;60.03;26.73;;;;;;;4.07;100.00;101793.28;7397448;19;21119;-64
2023/02/16 08:49:00;;;;;;;55.30;26.47;;;;;;;4.16;100.00;101822.13;7391271;19;20451;-64
2023/02/16 08:51:30;;;;;;;46.30;22.93;;;;;;;4.20;100.00;101813.06;7393796;19;20435;-63
2023/02/16 08:54:01;;;;;;;67.60;32.27;;;;;;;4.25;100.00;101806.69;7391545;19;21005;-64
2023/02/16 08:56:34;;;;;;;62.03;28.33;;;;;;;4.28;100.00;101803.50;7394014;19;20425;-63
2023/02/16 08:59:04;;;;;;;67.97;28.53;;;;;;;4.35;100.00;101812.59;7392287;19;20464;-62
2023/02/16 09:01:34;;;;;;;62.63;29.10;;;;;;;4.43;100.00;101811.56;7392917;19;21157;-64
2023/02/16 09:04:07;;;;;;;71.00;31.17;;;;;;;4.52;100.00;101826.78;7391336;19;20499;-66
2023/02/16 09:06:38;;;;;;;65.63;30.87;;;;;;;4.52;100.00;101840.44;7390511;19;20894;-61
2023/02/16 09:09:08;;;;;;;52.57;24.87;;;;;;;4.53;100.00;101836.22;7391682;19;20423;-63
2023/02/16 09:11:38;;;;;;;57.33;26.90;;;;;;;4.53;100.00;101843.91;7391356;19;20549;-65
2023/02/16 09:14:08;;;;;;;55.13;26.80;;;;;;;4.58;100.00;101842.63;7391391;19;20444;-64
2023/02/16 09:16:44;;;;;;;65.10;29.97;;;;;;;4.56;100.00;101845.03;7390653;19;20502;-64
2023/02/16 09:19:18;;;;;;;65.30;30.83;;;;;;;4.60;100.00;101841.09;7392056;19;20427;-62
2023/02/16 09:21:49;;;;;;;57.90;28.80;;;;;;;4.62;100.00;101847.25;7390439;19;20415;-65
2023/02/16 09:24:18;;;;;;;61.63;31.00;;;;;;;4.66;100.00;101846.72;7394206;19;20435;-64
2023/02/16 09:26:48;;;;;;;55.90;25.37;;;;;;;4.62;100.00;101849.78;7395337;19;20391;-62
2023/02/16 09:29:17;;;;;;;51.90;24.03;;;;;;;4.64;100.00;101853.38;7395150;19;20428;-62
2023/02/16 09:31:47;;;;;;;66.10;28.50;;;;;;;4.64;100.00;101861.03;7394451;19;20783;-63
2023/02/16 09:34:21;;;;;;;64.27;30.27;;;;;;;4.69;100.00;101861.41;7394738;19;20472;-63
2023/02/16 09:36:51;;;;;;;48.10;21.07;;;;;;;4.68;100.00;101860.50;7393937;19;20427;-63
2023/02/16 09:39:21;;;;;;;67.43;28.57;;;;;;;4.71;100.00;101868.44;7393062;19;20496;-61
2023/02/16 09:42:02;;;;;;;50.67;23.43;;;;;;;4.75;100.00;101867.03;7394327;19;20431;-65
2023/02/16 09:44:40;;;;;;;79.93;33.37;;;;;;;4.79;100.00;101868.19;7393981;19;20975;-64
2023/02/16 09:47:13;;;;;;;77.67;30.13;;;;;;;4.81;100.00;101866.63;7392074;19;20431;-61
2023/02/16 09:49:45;;;;;;;52.47;25.57;;;;;;;4.86;100.00;101873.03;7396484;19;20408;-62
2023/02/16 09:52:20;;;;;;;76.67;33.37;;;;;;;4.94;100.00;101868.56;7391813;19;20403;-64
2023/02/16 09:54:53;;;;;;;66.60;30.77;;;;;;;4.99;100.00;101873.28;7394394;19;20971;-62
2023/02/16 09:57:35;;;;;;;72.93;27.07;;;;;;;4.96;100.00;101870.47;7390817;19;20974;-63
2023/02/16 10:00:07;;;;;;;73.63;33.53;;;;;;;5.11;100.00;101872.50;7394744;19;20407;-59
2023/02/16 10:02:45;;;;;;;59.23;26.73;;;;;;;5.17;100.00;101878.13;7388137;19;20437;-65
2023/02/16 10:05:23;;;;;;;67.40;28.70;;;;;;;5.25;100.00;101882.22;7395047;19;20407;-62
2023/02/16 10:07:59;;;;;;;58.57;27.67;;;;;;;5.29;100.00;101872.22;7391103;19;20438;-63
2023/02/16 10:10:35;;;;;;;63.83;27.57;;;;;;;5.36;100.00;101859.13;7394938;19;20398;-64
2023/02/16 10:13:17;;;;;;;64.30;26.27;;;;;;;5.24;100.00;101866.72;7388181;19;20518;-64
2023/02/16 10:15:48;;;;;;;63.20;30.43;;;;;;;5.26;100.00;101872.84;7395931;19;20413;-64
2023/02/16 10:18:25;;;;;;;62.47;29.73;;;;;;;5.23;100.00;101863.25;7389090;19;20987;-62
2023/02/16 10:21:00;;;;;;;57.87;25.90;;;;;;;5.18;100.00;101868.78;7395117;19;20424;-63
2023/02/16 10:23:42;;;;;;;54.50;27.83;;;;;;;5.20;100.00;101857.91;7390259;19;20451;-64
2023/02/16 10:26:18;;;;;;;71.87;31.80;;;;;;;5.24;100.00;101857.38;7394642;19;20403;-64
2023/02/16 10:28:49;;;;;;;71.00;29.30;;;;;;;5.25;100.00;101856.63;7388076;19;20459;-64
2023/02/16 10:31:24;;;;;;;56.73;29.80;;;;;;;5.30;100.00;101843.28;7394405;19;20400;-59
2023/02/16 10:34:03;;;;;;;67.33;32.10;;;;;;;5.32;100.00;101840.09;7389503;19;21049;-63
2023/02/16 10:36:45;;;;;;;66.03;31.23;;;;;;;5.31;100.00;101840.88;7394558;19;20408;-64
2023/02/16 10:39:22;;;;;;;60.40;29.80;;;;;;;5.33;100.00;101839.31;7390722;19;20773;-63
2023/02/16 10:41:56;;;;;;;63.60;32.10;;;;;;;5.34;100.00;101835.09;7391592;19;20415;-65
2023/02/16 10:44:30;;;;;;;64.77;32.00;;;;;;;5.37;100.00;101831.13;7392353;19;21025;-64
2023/02/16 10:47:05;;;;;;;61.83;31.50;;;;;;;5.44;100.00;101829.91;7391416;19;20830;-62
2023/02/16 10:49:37;;;;;;;69.97;34.00;;;;;;;5.47;100.00;101840.41;7393449;19;20827;-63
2023/02/16 10:52:09;;;;;;;64.43;31.73;;;;;;;5.54;100.00;101835.00;7390286;19;20414;-63
2023/02/16 10:54:38;;;;;;;64.00;32.20;;;;;;;5.56;100.00;101836.78;7392900;19;20452;-61
2023/02/16 10:57:10;;;;;;;48.33;24.23;;;;;;;5.56;100.00;101834.25;7389783;19;20415;-63
2023/02/16 10:59:41;;;;;;;64.03;32.30;;;;;;;5.64;100.00;101822.97;7392136;19;20782;-62
2023/02/16 11:02:20;;;;;;;76.03;31.60;;;;;;;5.66;100.00;101834.22;7388867;19;20437;-64
2023/02/16 11:04:51;;;;;;;48.97;24.40;;;;;;;5.67;100.00;101829.22;7393009;19;20453;-59
2023/02/16 11:07:24;;;;;;;62.57;32.13;;;;;;;5.75;100.00;101832.34;7388813;19;20537;-62
2023/02/16 11:09:56;;;;;;;66.13;26.60;;;;;;;5.81;100.00;101820.03;7392682;19;20416;-64
2023/02/16 11:12:28;;;;;;;63.60;29.23;;;;;;;5.87;100.00;101828.97;7385675;19;20427;-61
2023/02/16 11:15:02;;;;;;;59.73;29.30;;;;;;;5.93;100.00;101825.22;7388733;19;20418;-64
2023/02/16 11:17:32;;;;;;;72.93;29.67;;;;;;;5.98;100.00;101834.91;7389366;19;20416;-61
2023/02/16 11:20:08;;;;;;;62.10;25.97;;;;;;;5.96;100.00;101827.16;7390018;19;20412;-63
2023/02/16 11:22:41;;;;;;;71.03;32.00;;;;;;;6.03;100.00;101824.31;7388399;19;20411;-62
2023/02/16 11:25:26;;;;;;;95.80;38.10;;;;;;;6.11;100.00;101831.69;7393000;19;20435;-65
2023/02/16 11:27:58;;;;;;;72.67;34.10;;;;;;;6.14;100.00;101826.78;7383172;19;20431;-62
2023/02/16 11:30:31;;;;;;;84.93;38.40;;;;;;;6.16;100.00;101821.00;7392755;19;20486;-63
2023/02/16 11:33:03;;;;;;;69.50;34.53;;;;;;;6.19;100.00;101828.03;7387842;19;21024;-64
2023/02/16 11:35:34;;;;;;;57.87;25.70;;;;;;;6.21;100.00;101818.81;7392719;19;20404;-64
2023/02/16 11:38:23;;;;;;;68.10;30.73;;;;;;;6.18;100.00;101816.91;7387768;19;20441;-60
2023/02/16 11:40:54;;;;;;;75.57;35.80;;;;;;;6.29;100.00;101819.38;7393040;19;20412;-64
2023/02/16 11:43:23;;;;;;;92.93;37.27;;;;;;;6.27;100.00;101818.38;7386684;19;20469;-63
2023/02/16 11:45:59;;;;;;;64.27;28.20;;;;;;;6.24;100.00;101826.72;7393973;19;20940;-63
2023/02/16 11:48:31;;;;;;;61.03;29.33;;;;;;;6.24;100.00;101826.72;7387682;19;20456;-62
2023/02/16 11:51:02;;;;;;;67.40;30.33;;;;;;;6.23;100.00;101819.81;7391128;19;20404;-61
2023/02/16 11:53:36;;;;;;;80.33;34.93;;;;;;;6.21;100.00;101812.00;7386085;19;20449;-62
2023/02/16 11:56:23;;;;;;;67.60;32.13;;;;;;;6.25;100.00;101810.56;7391977;19;20416;-64
2023/02/16 11:59:14;;;;;;;67.20;31.10;;;;;;;6.27;100.00;101806.47;7386939;19;20519;-62
2023/02/16 12:01:56;;;;;;;51.83;24.20;;;;;;;6.25;100.00;101802.88;7388923;19;20773;-63
2023/02/16 12:04:37;;;;;;;80.33;33.20;;;;;;;6.28;100.00;101800.56;7390656;19;20445;-64
2023/02/16 12:07:14;;;;;;;63.30;30.77;;;;;;;6.34;100.00;101790.78;7386689;19;20403;-61
2023/02/16 12:09:52;;;;;;;56.97;26.90;;;;;;;6.34;100.00;101790.78;7389309;19;20421;-65
2023/02/16 12:12:33;;;;;;;78.87;32.33;;;;;;;6.33;100.00;101791.56;7386831;19;20432;-62
2023/02/16 12:15:06;;;;;;;112.27;42.07;;;;;;;6.35;100.00;101789.09;7391706;19;20411;-61
2023/02/16 12:17:48;;;;;;;60.50;26.07;;;;;;;6.27;100.00;101785.97;7386618;19;20493;-65